Danmark — OXDK — position and weather

sailwx.info

Track history (hours):
 
Tides and Currents Weather Stations Pressure Air Temp Water Temp Dewpoint Dewpoint Depression Visibility Wind Speed Wind Dir Waves Ship Positions

Danmark (Denmark)

Last reported at 2019-Apr-25 17:14 UTC. Time now 2019-Apr-26 04:35 UTC.
Position N 18°24' W 063°20'.

Length 60 m; beam 10 m; draft 5 m.

Type: Sailing vessel. MMSI: 219500000.

Date/timePositionNaut miles runAvg speedWind from/ knotsBaromVisibWave heightAir tempDewpointWater temp
2019-Apr-25 17:14N 18°24' W 063°20'3 6.4
2019-Apr-25 16:50N 18°21' W 063°20'3 6.2
2019-Apr-25 16:25N 18°19' W 063°20'3 6.1
2019-Apr-25 15:58N 18°16' W 063°20'3 5.4
2019-Apr-25 15:30N 18°14' W 063°19'3 6.0
2019-Apr-25 15:00N 18°11' W 063°17'4 6.2
2019-Apr-25 14:18N 18°09' W 063°13'2 6.3
2019-Apr-25 14:00N 18°08' W 063°11'3 6.3
2019-Apr-25 13:29N 18°06' W 063°08'3 5.6
2019-Apr-25 12:56N 18°05' W 063°05'0 0.3
2019-Apr-25 12:25N 18°05' W 063°06'0 0.0
2019-Apr-25 11:55N 18°05' W 063°06'0 0.0
2019-Apr-25 11:25N 18°05' W 063°06'0 0.0
2019-Apr-25 10:10N 18°05' W 063°06'0 0.0
2019-Apr-25 09:43N 18°05' W 063°06'0 0.0
2019-Apr-25 08:28N 18°05' W 063°06'0 0.0
2019-Apr-25 07:43N 18°05' W 063°06'0 0.0
2019-Apr-25 07:16N 18°05' W 063°06'0 0.0
2019-Apr-25 06:46N 18°05' W 063°06'0 0.0
2019-Apr-25 05:58N 18°05' W 063°06'0 0.0
2019-Apr-25 05:28N 18°05' W 063°06'0 0.0
2019-Apr-25 03:46N 18°05' W 063°06'0 0.0
2019-Apr-25 01:52N 18°05' W 063°06'0 0.0
2019-Apr-25 01:04N 18°05' W 063°06'0 0.0
2019-Apr-24 23:55N 18°05' W 063°06'0 0.0
2019-Apr-24 23:25N 18°05' W 063°06'0 0.0
2019-Apr-24 20:52N 18°05' W 063°06'0 0.0
2019-Apr-24 19:10N 18°05' W 063°06'0 0.0
2019-Apr-24 18:02N 18°05' W 063°05'0 0.0
2019-Apr-24 17:31N 18°05' W 063°05'0 0.0
2019-Apr-24 17:13N 18°05' W 063°06'0 0.0
2019-Apr-24 16:28N 18°05' W 063°05'0 0.0
2019-Apr-24 15:49N 18°05' W 063°05'0 0.0
2019-Apr-24 15:28N 18°05' W 063°05'0 0.0
2019-Apr-24 14:58N 18°05' W 063°05'0 0.1
2019-Apr-24 14:04N 18°05' W 063°06'0 0.1
2019-Apr-24 13:49N 18°05' W 063°06'0 0.0
2019-Apr-24 13:07N 18°05' W 063°06'0 0.0
2019-Apr-24 12:42N 18°05' W 063°06'0 0.1
2019-Apr-24 12:14N 18°05' W 063°06'0 0.0
2019-Apr-24 11:44N 18°05' W 063°06'0 0.2
2019-Apr-24 11:30N 18°05' W 063°06'3 5.2
2019-Apr-24 10:58N 18°06' W 063°08'4 4.7
2019-Apr-24 10:10N 18°03' W 063°11'1 5.7
2019-Apr-24 09:59N 18°02' W 063°11'6 5.7
2019-Apr-24 08:55N 17°57' W 063°07'2 5.3
2019-Apr-24 08:30N 17°56' W 063°05'3 5.4
2019-Apr-24 07:52N 17°54' W 063°02'2 5.2
2019-Apr-24 07:27N 17°52' W 063°01'2 5.3
2019-Apr-24 06:59N 17°50' W 062°59'3 6.0
2019-Apr-24 06:30N 17°48' W 062°57'3 6.3
2019-Apr-24 05:58N 17°46' W 062°54'  
Track history (hours):
 
Tides and Currents Weather Stations Pressure Air Temp Water Temp Dewpoint Dewpoint Depression Visibility Wind Speed Wind Dir Waves Ship Positions

Danmark (Denmark)

Last reported at 2019-Apr-25 17:14 UTC. Time now 2019-Apr-26 04:35 UTC.
Position N 18°24' W 063°20'.

Length 60 m; beam 10 m; draft 5 m.

Type: Sailing vessel. MMSI: 219500000.

Date/timePositionNaut miles runAvg speedWind from/ knotsBaromVisibWave heightAir tempDewpointWater temp
2019-Apr-25 17:14N 18°24' W 063°20'3 6.4
2019-Apr-25 16:50N 18°21' W 063°20'3 6.2
2019-Apr-25 16:25N 18°19' W 063°20'3 6.1
2019-Apr-25 15:58N 18°16' W 063°20'3 5.4
2019-Apr-25 15:30N 18°14' W 063°19'3 6.0
2019-Apr-25 15:00N 18°11' W 063°17'4 6.2
2019-Apr-25 14:18N 18°09' W 063°13'2 6.3
2019-Apr-25 14:00N 18°08' W 063°11'3 6.3
2019-Apr-25 13:29N 18°06' W 063°08'3 5.6
2019-Apr-25 12:56N 18°05' W 063°05'0 0.3
2019-Apr-25 12:25N 18°05' W 063°06'0 0.0
2019-Apr-25 11:55N 18°05' W 063°06'0 0.0
2019-Apr-25 11:25N 18°05' W 063°06'0 0.0
2019-Apr-25 10:10N 18°05' W 063°06'0 0.0
2019-Apr-25 09:43N 18°05' W 063°06'0 0.0
2019-Apr-25 08:28N 18°05' W 063°06'0 0.0
2019-Apr-25 07:43N 18°05' W 063°06'0 0.0
2019-Apr-25 07:16N 18°05' W 063°06'0 0.0
2019-Apr-25 06:46N 18°05' W 063°06'0 0.0
2019-Apr-25 05:58N 18°05' W 063°06'0 0.0
2019-Apr-25 05:28N 18°05' W 063°06'0 0.0
2019-Apr-25 03:46N 18°05' W 063°06'0 0.0
2019-Apr-25 01:52N 18°05' W 063°06'0 0.0
2019-Apr-25 01:04N 18°05' W 063°06'0 0.0
2019-Apr-24 23:55N 18°05' W 063°06'0 0.0
2019-Apr-24 23:25N 18°05' W 063°06'0 0.0
2019-Apr-24 20:52N 18°05' W 063°06'0 0.0
2019-Apr-24 19:10N 18°05' W 063°06'0 0.0
2019-Apr-24 18:02N 18°05' W 063°05'0 0.0
2019-Apr-24 17:31N 18°05' W 063°05'0 0.0
2019-Apr-24 17:13N 18°05' W 063°06'0 0.0
2019-Apr-24 16:28N 18°05' W 063°05'0 0.0
2019-Apr-24 15:49N 18°05' W 063°05'0 0.0
2019-Apr-24 15:28N 18°05' W 063°05'0 0.0
2019-Apr-24 14:58N 18°05' W 063°05'0 0.1
2019-Apr-24 14:04N 18°05' W 063°06'0 0.1
2019-Apr-24 13:49N 18°05' W 063°06'0 0.0
2019-Apr-24 13:07N 18°05' W 063°06'0 0.0
2019-Apr-24 12:42N 18°05' W 063°06'0 0.1
2019-Apr-24 12:14N 18°05' W 063°06'0 0.0
2019-Apr-24 11:44N 18°05' W 063°06'0 0.2
2019-Apr-24 11:30N 18°05' W 063°06'3 5.2
2019-Apr-24 10:58N 18°06' W 063°08'4 4.7
2019-Apr-24 10:10N 18°03' W 063°11'1 5.7
2019-Apr-24 09:59N 18°02' W 063°11'6 5.7
2019-Apr-24 08:55N 17°57' W 063°07'2 5.3
2019-Apr-24 08:30N 17°56' W 063°05'3 5.4
2019-Apr-24 07:52N 17°54' W 063°02'2 5.2
2019-Apr-24 07:27N 17°52' W 063°01'2 5.3
2019-Apr-24 06:59N 17°50' W 062°59'3 6.0
2019-Apr-24 06:30N 17°48' W 062°57'3 6.3
2019-Apr-24 05:58N 17°46' W 062°54'  

Dump ship's entire track history